Time;durP1;ratioP1;P1;durP2;ratioP2;P2;SDS_P1;SDS_P2;PMS_P1;PMS_P2;Temp;Humidity;BMP_temperature;BMP_pressure;BME280_temperature;BME280_humidity;BME280_pressure;Samples;Min_cycle;Max_cycle;Signal;HPM_P1;HPM_P2
2023/03/01 00:02:06;;;;;;;20.70;16.50;;;2.80;99.90;;;;;;4862302;29;20062;-89
2023/03/01 00:04:32;;;;;;;24.13;17.42;;;2.80;99.90;;;;;;4860783;29;20060;-88
2023/03/01 00:06:58;;;;;;;21.20;16.98;;;2.80;99.90;;;;;;4861556;29;20049;-88
2023/03/01 00:09:23;;;;;;;21.02;16.65;;;2.70;99.90;;;;;;4861642;29;20049;-88
2023/03/01 00:11:49;;;;;;;22.35;17.20;;;2.70;99.90;;;;;;4862301;29;20060;-89
2023/03/01 00:14:17;;;;;;;25.17;17.13;;;2.70;99.90;;;;;;4862848;29;20530;-88
2023/03/01 00:16:44;;;;;;;23.08;16.60;;;2.70;99.90;;;;;;4868093;29;20082;-88
2023/03/01 00:19:14;;;;;;;23.00;15.93;;;2.70;99.90;;;;;;4862439;29;20041;-88
2023/03/01 00:21:40;;;;;;;20.17;15.73;;;2.60;99.90;;;;;;4861626;29;20049;-88
2023/03/01 00:24:05;;;;;;;21.67;17.05;;;2.60;99.90;;;;;;4862146;29;20049;-89
2023/03/01 00:26:31;;;;;;;21.60;15.93;;;2.60;99.90;;;;;;4861251;29;20155;-88
2023/03/01 00:28:58;;;;;;;19.95;16.15;;;2.50;99.90;;;;;;4861468;29;20068;-88
2023/03/01 00:31:27;;;;;;;22.48;16.67;;;2.50;99.90;;;;;;4862729;29;20109;-89
2023/03/01 00:33:57;;;;;;;23.75;16.40;;;2.50;99.90;;;;;;4860737;29;20049;-88
2023/03/01 00:36:25;;;;;;;20.77;15.43;;;2.50;99.90;;;;;;4863011;29;20049;-89
2023/03/01 00:38:51;;;;;;;20.30;15.55;;;2.50;99.90;;;;;;4862926;29;20045;-89
2023/03/01 00:41:19;;;;;;;20.15;15.50;;;2.40;99.90;;;;;;4859114;29;20464;-89
2023/03/01 00:43:45;;;;;;;21.02;14.85;;;2.40;99.90;;;;;;4860941;29;20084;-89
2023/03/01 00:46:18;;;;;;;21.35;15.18;;;2.30;99.90;;;;;;4861082;29;20049;-89
2023/03/01 00:48:45;;;;;;;;;;;2.30;99.90;;;;;;4862682;29;20533;-89
2023/03/01 00:51:22;;;;;;;20.63;15.68;;;2.30;99.90;;;;;;4862520;29;19924;-89
2023/03/01 00:53:51;;;;;;;19.48;14.75;;;2.20;99.90;;;;;;4859921;29;20109;-89
2023/03/01 00:56:17;;;;;;;21.65;15.50;;;2.20;99.90;;;;;;4862228;29;20060;-88
2023/03/01 00:58:43;;;;;;;18.92;13.70;;;2.20;99.90;;;;;;4877102;29;20053;-89
2023/03/01 01:01:16;;;;;;;20.30;15.20;;;2.20;99.90;;;;;;4861241;29;20053;-89
2023/03/01 01:03:48;;;;;;;22.33;15.20;;;2.20;99.90;;;;;;4862304;29;20053;-88
2023/03/01 01:06:23;;;;;;;20.00;14.65;;;2.10;99.90;;;;;;4861917;29;20052;-89
2023/03/01 01:08:49;;;;;;;18.40;14.15;;;2.10;99.90;;;;;;4862093;29;20041;-89
2023/03/01 01:11:15;;;;;;;25.27;16.23;;;2.10;99.90;;;;;;4860447;29;20049;-88
2023/03/01 01:13:41;;;;;;;20.20;15.75;;;2.00;99.90;;;;;;4860431;29;20136;-88
2023/03/01 01:16:07;;;;;;;24.25;16.67;;;2.00;99.90;;;;;;4859815;29;20052;-89
2023/03/01 01:18:33;;;;;;;21.08;15.10;;;2.00;99.90;;;;;;4860686;29;20052;-89
2023/03/01 01:21:07;;;;;;;22.77;15.55;;;2.00;99.90;;;;;;4861221;29;20045;-88
2023/03/01 01:23:33;;;;;;;22.17;16.05;;;2.00;99.90;;;;;;4862064;29;20116;-88
2023/03/01 01:26:07;;;;;;;23.48;16.02;;;2.00;99.90;;;;;;4860530;29;20158;-89
2023/03/01 01:28:32;;;;;;;22.83;16.83;;;2.00;99.90;;;;;;4859827;29;20086;-89
2023/03/01 01:30:59;;;;;;;22.33;15.50;;;2.00;99.90;;;;;;4860358;29;20046;-89
2023/03/01 01:33:24;;;;;;;22.92;15.50;;;2.00;99.90;;;;;;4861543;29;20490;-88
2023/03/01 01:35:50;;;;;;;20.88;15.68;;;2.00;99.90;;;;;;4861008;29;20132;-89
2023/03/01 01:38:16;;;;;;;23.27;16.15;;;2.00;99.90;;;;;;4860638;29;20052;-89
2023/03/01 01:40:45;;;;;;;19.45;15.20;;;2.00;99.90;;;;;;4861172;29;20482;-89
2023/03/01 01:43:36;;;;;;;19.27;15.32;;;2.00;99.90;;;;;;4853351;29;20081;-88
2023/03/01 01:46:05;;;;;;;20.33;15.40;;;1.90;99.90;;;;;;4860464;29;20053;-88
2023/03/01 01:48:54;;;;;;;18.98;14.10;;;1.90;99.90;;;;;;4860080;29;20064;-89
2023/03/01 01:51:25;;;;;;;18.27;13.77;;;1.90;99.90;;;;;;4859348;29;20061;-89
2023/03/01 01:53:56;;;;;;;19.55;14.52;;;1.90;99.90;;;;;;4860277;29;20057;-89
2023/03/01 01:56:23;;;;;;;17.38;13.88;;;1.90;99.90;;;;;;4859690;29;20409;-89
2023/03/01 01:58:50;;;;;;;16.95;13.77;;;1.90;99.90;;;;;;4859987;29;20053;-89
2023/03/01 02:01:16;;;;;;;17.88;13.18;;;1.80;99.90;;;;;;4860916;29;20121;-89
2023/03/01 02:03:44;;;;;;;17.65;13.85;;;1.80;99.90;;;;;;4859678;29;20053;-89
2023/03/01 02:06:19;;;;;;;19.23;13.50;;;1.80;99.90;;;;;;4861584;29;20073;-89
2023/03/01 02:08:47;;;;;;;19.70;14.60;;;1.80;99.90;;;;;;4875663;29;20057;-89
2023/03/01 02:11:16;;;;;;;18.02;13.98;;;1.70;99.90;;;;;;4860481;29;20074;-90
2023/03/01 02:13:42;;;;;;;16.95;13.63;;;1.70;99.90;;;;;;4861064;29;20042;-90
2023/03/01 02:16:10;;;;;;;19.20;14.02;;;1.70;99.90;;;;;;4860226;29;20128;-90
2023/03/01 02:18:37;;;;;;;17.58;14.07;;;1.70;99.90;;;;;;4859518;29;20049;-89
2023/03/01 02:21:28;;;;;;;17.95;13.50;;;1.60;99.90;;;;;;4860155;29;20061;-89
2023/03/01 02:23:57;;;;;;;19.17;14.02;;;1.60;99.90;;;;;;4861539;29;20058;-90
2023/03/01 02:26:42;;;;;;;18.25;13.80;;;1.60;99.90;;;;;;4860013;29;20533;-90
2023/03/01 02:29:07;;;;;;;19.05;14.05;;;1.60;99.90;;;;;;4860084;29;20050;-89
2023/03/01 02:31:42;;;;;;;17.52;13.27;;;1.60;99.90;;;;;;4860491;29;20037;-90
2023/03/01 02:34:17;;;;;;;18.30;14.10;;;1.50;99.90;;;;;;4860510;29;20083;-90
2023/03/01 02:36:54;;;;;;;16.05;13.60;;;1.50;99.90;;;;;;4860726;29;20038;-90
2023/03/01 02:39:26;;;;;;;16.70;13.48;;;1.50;99.90;;;;;;4860376;29;20451;-90
2023/03/01 02:41:54;;;;;;;16.35;13.02;;;1.50;99.90;;;;;;4861484;29;20056;-89
2023/03/01 02:44:20;;;;;;;17.42;13.80;;;1.50;99.90;;;;;;4875331;29;20046;-90
2023/03/01 02:46:55;;;;;;;16.92;13.63;;;1.40;99.90;;;;;;4859010;29;20057;-90
2023/03/01 02:49:23;;;;;;;17.23;13.57;;;1.40;99.90;;;;;;4860641;29;20398;-89
2023/03/01 02:51:59;;;;;;;16.33;12.88;;;1.40;99.90;;;;;;4859376;29;20494;-90
2023/03/01 02:54:29;;;;;;;16.60;13.30;;;1.40;99.90;;;;;;4875026;29;20448;-90
2023/03/01 02:56:56;;;;;;;16.25;13.07;;;1.30;99.90;;;;;;4874829;29;20135;-89
2023/03/01 02:59:26;;;;;;;16.65;13.40;;;1.30;99.90;;;;;;4859663;29;20383;-90
2023/03/01 03:01:51;;;;;;;17.73;13.45;;;1.30;99.90;;;;;;4859072;29;20056;-90
2023/03/01 03:04:18;;;;;;;17.38;13.85;;;1.30;99.90;;;;;;4859620;29;20402;-90
2023/03/01 03:06:45;;;;;;;16.15;12.93;;;1.30;99.90;;;;;;4859263;29;20093;-90
2023/03/01 03:09:13;;;;;;;16.55;13.05;;;1.20;99.90;;;;;;4860959;29;20071;-90
2023/03/01 03:11:40;;;;;;;15.93;13.27;;;1.20;99.90;;;;;;4859647;29;20108;-90
2023/03/01 03:14:14;;;;;;;15.82;12.93;;;1.20;99.90;;;;;;4859130;29;20502;-90
2023/03/01 03:16:45;;;;;;;15.35;12.48;;;1.10;99.90;;;;;;4860706;29;20094;-90
2023/03/01 03:19:11;;;;;;;15.75;12.57;;;1.10;99.90;;;;;;4859545;29;20137;-90
2023/03/01 03:21:37;;;;;;;16.50;13.40;;;1.10;99.90;;;;;;4863359;29;20075;-90
2023/03/01 03:24:03;;;;;;;15.98;12.65;;;1.10;99.90;;;;;;4859484;29;20049;-90
2023/03/01 03:26:30;;;;;;;15.60;12.30;;;1.00;99.90;;;;;;4860669;29;20041;-89
2023/03/01 03:28:56;;;;;;;16.00;12.63;;;1.00;99.90;;;;;;4860172;29;20057;-91
2023/03/01 03:31:21;;;;;;;14.05;11.80;;;1.00;99.90;;;;;;4860658;29;20045;-91
2023/03/01 03:33:47;;;;;;;16.08;12.38;;;1.00;99.90;;;;;;4860908;29;20038;-91
2023/03/01 03:36:17;;;;;;;16.55;12.88;;;0.90;99.90;;;;;;4858357;29;20058;-92
2023/03/01 03:38:45;;;;;;;15.23;11.70;;;0.90;99.90;;;;;;4871682;29;20102;-91
2023/03/01 03:41:11;;;;;;;15.15;11.95;;;0.90;99.90;;;;;;4861165;29;20049;-91
2023/03/01 03:43:38;;;;;;;15.30;11.90;;;0.90;99.90;;;;;;4858949;29;20056;-91
2023/03/01 03:46:05;;;;;;;15.23;11.73;;;0.80;99.90;;;;;;4859626;29;20094;-92
2023/03/01 03:48:35;;;;;;;14.23;11.60;;;0.80;99.90;;;;;;4860669;29;20053;-91
2023/03/01 03:51:01;;;;;;;14.25;11.80;;;0.80;99.90;;;;;;4862947;29;20061;-90
2023/03/01 03:53:28;;;;;;;15.52;12.35;;;0.80;99.90;;;;;;4878118;29;20513;-91
2023/03/01 03:55:54;;;;;;;14.90;11.98;;;0.80;99.90;;;;;;4878155;29;20045;-91
2023/03/01 03:58:22;;;;;;;16.23;12.00;;;0.70;99.90;;;;;;4862375;29;20133;-90
2023/03/01 04:00:56;;;;;;;16.35;11.68;;;0.70;99.90;;;;;;4863052;29;20056;-90
2023/03/01 04:03:23;;;;;;;14.55;11.55;;;0.70;99.90;;;;;;4861652;29;20498;-91
2023/03/01 04:05:50;;;;;;;15.45;12.13;;;0.70;99.90;;;;;;4877927;29;20502;-91
2023/03/01 04:08:19;;;;;;;17.33;11.93;;;0.70;99.90;;;;;;4862354;29;20064;-90
2023/03/01 04:10:47;;;;;;;15.00;12.25;;;0.70;99.90;;;;;;4843678;29;20049;-91
2023/03/01 04:13:16;;;;;;;13.38;11.05;;;0.70;99.90;;;;;;4854026;29;20052;-90
2023/03/01 04:15:42;;;;;;;14.52;11.25;;;0.70;99.90;;;;;;4862437;29;20041;-91
2023/03/01 04:18:11;;;;;;;14.57;11.50;;;0.70;99.90;;;;;;4862468;29;20182;-91
2023/03/01 04:20:37;;;;;;;13.77;10.80;;;0.70;99.90;;;;;;4859817;29;20052;-91
2023/03/01 04:23:10;;;;;;;12.68;10.00;;;0.60;99.90;;;;;;4863860;29;20084;-90
2023/03/01 04:25:41;;;;;;;14.10;10.40;;;0.60;99.90;;;;;;4846735;29;20049;-91
2023/03/01 04:28:08;;;;;;;12.30;9.60;;;0.60;99.90;;;;;;4862535;29;20399;-91
2023/03/01 04:30:36;;;;;;;12.93;9.82;;;0.60;99.90;;;;;;4861780;29;20128;-92
2023/03/01 04:33:03;;;;;;;11.70;9.20;;;0.50;99.90;;;;;;4847131;29;20521;-91
2023/03/01 04:35:30;;;;;;;11.75;9.70;;;0.50;99.90;;;;;;4877538;29;20071;-91
2023/03/01 04:37:55;;;;;;;12.02;9.13;;;0.50;99.90;;;;;;4863485;29;20591;-91
2023/03/01 04:40:21;;;;;;;11.55;9.70;;;0.40;99.90;;;;;;4860870;29;20141;-90
2023/03/01 04:42:47;;;;;;;12.25;10.13;;;0.40;99.90;;;;;;4862064;29;20054;-91
2023/03/01 04:45:13;;;;;;;12.68;9.45;;;0.40;99.90;;;;;;4855650;29;20084;-92
2023/03/01 04:47:44;;;;;;;12.23;9.68;;;0.30;99.90;;;;;;4862702;29;20049;-91
2023/03/01 04:50:12;;;;;;;12.02;9.25;;;0.30;99.90;;;;;;4863482;29;20080;-90
2023/03/01 04:52:38;;;;;;;12.23;9.63;;;0.30;99.90;;;;;;4862543;29;20068;-91
2023/03/01 04:55:05;;;;;;;11.93;9.65;;;0.20;99.90;;;;;;4862394;29;20132;-91
2023/03/01 04:57:31;;;;;;;12.30;9.60;;;0.20;99.90;;;;;;4862242;29;20049;-92
2023/03/01 04:59:57;;;;;;;11.93;9.65;;;0.20;99.90;;;;;;4846918;29;20041;-92
2023/03/01 05:02:23;;;;;;;13.02;10.20;;;0.20;99.90;;;;;;4862153;29;20052;-92
2023/03/01 05:04:49;;;;;;;13.05;10.70;;;0.20;99.90;;;;;;4861614;29;20120;-91
2023/03/01 05:07:19;;;;;;;13.32;10.13;;;0.10;99.90;;;;;;4862114;29;20128;-92
2023/03/01 05:09:48;;;;;;;13.80;10.50;;;0.10;99.90;;;;;;4863554;29;20052;-92
2023/03/01 05:12:14;;;;;;;13.88;10.25;;;0.00;99.90;;;;;;4862170;29;20130;-93
2023/03/01 05:14:40;;;;;;;15.45;10.65;;;0.00;99.90;;;;;;4863085;29;20053;-92
2023/03/01 05:17:06;;;;;;;13.52;10.98;;;0.00;99.90;;;;;;4863159;29;20052;-92
2023/03/01 05:19:32;;;;;;;13.05;10.68;;;0.00;99.90;;;;;;4861401;29;20410;-92
2023/03/01 05:22:01;;;;;;;14.10;11.25;;;0.00;99.90;;;;;;4863177;29;20057;-92
2023/03/01 05:24:28;;;;;;;13.88;11.15;;;-0.10;99.90;;;;;;4861805;29;20049;-91
2023/03/01 05:26:53;;;;;;;14.27;11.20;;;-0.10;99.90;;;;;;4861934;29;20056;-92
2023/03/01 05:29:24;;;;;;;15.23;11.20;;;-0.10;99.90;;;;;;4862507;29;20128;-92
2023/03/01 05:31:54;;;;;;;13.93;10.85;;;-0.10;99.90;;;;;;4856029;29;20056;-91
2023/03/01 05:34:31;;;;;;;14.95;12.02;;;-0.20;99.90;;;;;;4861719;29;20041;-92
2023/03/01 05:36:57;;;;;;;14.00;11.48;;;-0.20;99.90;;;;;;4861572;29;20480;-93
2023/03/01 05:39:24;;;;;;;14.68;11.40;;;-0.20;99.90;;;;;;4863169;29;20080;-93
2023/03/01 05:41:58;;;;;;;14.55;11.75;;;-0.30;99.90;;;;;;4846447;29;20082;-93
2023/03/01 05:44:25;;;;;;;14.40;11.60;;;-0.30;99.90;;;;;;4862863;29;20073;-93
2023/03/01 05:46:51;;;;;;;16.20;12.48;;;-0.30;99.90;;;;;;4862844;29;20045;-94
2023/03/01 05:49:17;;;;;;;14.30;11.45;;;-0.30;99.90;;;;;;4866544;29;20174;-93
2023/03/01 05:51:46;;;;;;;15.38;12.13;;;-0.30;99.90;;;;;;4843268;29;20574;-95
2023/03/01 05:54:12;;;;;;;14.57;11.82;;;-0.30;99.90;;;;;;4853988;29;20050;-94
2023/03/01 05:56:38;;;;;;;14.18;11.52;;;-0.40;99.90;;;;;;4861831;29;20478;-92
2023/03/01 05:59:07;;;;;;;14.55;11.90;;;-0.40;99.90;;;;;;4858804;29;20041;-88
2023/03/01 06:01:34;;;;;;;15.13;12.32;;;-0.40;99.90;;;;;;4841305;29;20403;-89
2023/03/01 06:04:00;;;;;;;16.23;13.02;;;-0.40;99.90;;;;;;4856908;29;20068;-89
2023/03/01 06:06:26;;;;;;;14.95;11.77;;;-0.50;99.90;;;;;;4844487;29;20452;-89
2023/03/01 06:08:52;;;;;;;14.35;11.88;;;-0.50;99.90;;;;;;4861281;29;20041;-95
2023/03/01 06:11:18;;;;;;;15.52;12.18;;;-0.50;99.90;;;;;;4864307;29;20090;-96
2023/03/01 06:13:45;;;;;;;15.80;12.60;;;-0.50;99.90;;;;;;4862001;29;20042;-96
2023/03/01 06:16:11;;;;;;;14.05;11.23;;;-0.50;99.90;;;;;;4866228;29;20041;-96
2023/03/01 06:18:38;;;;;;;16.33;12.23;;;-0.50;99.90;;;;;;4873348;29;20050;-96
2023/03/01 06:21:05;;;;;;;15.52;11.95;;;-0.50;99.90;;;;;;4875311;29;20060;-96
2023/03/01 06:23:31;;;;;;;14.57;11.88;;;-0.60;99.90;;;;;;4872035;29;20053;-96
2023/03/01 06:25:56;;;;;;;14.73;11.60;;;-0.60;99.90;;;;;;4855483;29;20050;-96
2023/03/01 06:28:22;;;;;;;13.95;11.63;;;-0.60;99.90;;;;;;4852025;29;20057;-96
2023/03/01 06:30:49;;;;;;;14.85;11.80;;;-0.60;99.90;;;;;;4869632;29;20136;-95
2023/03/01 06:33:15;;;;;;;15.85;12.73;;;-0.60;99.90;;;;;;4862266;29;20155;-95
2023/03/01 06:35:40;;;;;;;15.57;11.82;;;-0.60;99.90;;;;;;4861746;29;20064;-95
2023/03/01 06:38:06;;;;;;;14.02;11.40;;;-0.70;99.90;;;;;;4864160;29;20097;-95
2023/03/01 06:40:35;;;;;;;13.95;11.68;;;-0.70;99.90;;;;;;4863083;29;20052;-95
2023/03/01 06:43:00;;;;;;;15.52;11.73;;;-0.70;99.90;;;;;;4863317;29;20033;-95
2023/03/01 06:45:26;;;;;;;17.20;12.63;;;-0.70;99.90;;;;;;4858039;29;20504;-95
2023/03/01 06:48:00;;;;;;;14.65;11.27;;;-0.70;99.90;;;;;;4863724;29;20496;-95
2023/03/01 06:50:26;;;;;;;13.73;10.93;;;-0.70;99.90;;;;;;4843001;29;20080;-94
2023/03/01 06:52:56;;;;;;;14.00;10.95;;;-0.80;99.90;;;;;;4855391;29;20541;-94
2023/03/01 06:55:21;;;;;;;13.73;10.98;;;-0.80;99.90;;;;;;4861946;29;20049;-94
2023/03/01 06:57:47;;;;;;;13.75;11.20;;;-0.80;99.90;;;;;;4861976;29;20037;-95
2023/03/01 07:00:13;;;;;;;13.88;11.27;;;-0.80;99.90;;;;;;4877635;29;20048;-96
2023/03/01 07:02:39;;;;;;;13.73;10.85;;;-0.80;99.90;;;;;;4864035;29;20056;-96
2023/03/01 07:05:04;;;;;;;13.68;10.82;;;-0.80;99.90;;;;;;4863986;29;20049;-96
2023/03/01 07:07:30;;;;;;;12.98;10.48;;;-0.80;99.90;;;;;;4856348;29;20045;-95
2023/03/01 07:09:56;;;;;;;13.80;11.05;;;-0.80;99.90;;;;;;4853552;29;20057;-95
2023/03/01 07:12:21;;;;;;;13.60;11.23;;;-0.80;99.90;;;;;;4861549;29;20049;-94
2023/03/01 07:14:47;;;;;;;13.38;10.27;;;-0.80;99.90;;;;;;4862266;29;20042;-94
2023/03/01 07:17:13;;;;;;;14.40;11.43;;;-0.90;99.90;;;;;;4862219;29;20050;-93
2023/03/01 07:19:38;;;;;;;14.90;11.80;;;-0.90;99.90;;;;;;4862560;29;20045;-93
2023/03/01 07:22:07;;;;;;;13.90;11.05;;;-0.90;99.90;;;;;;4861092;29;20056;-94
2023/03/01 07:24:33;;;;;;;13.80;10.85;;;-0.90;99.90;;;;;;4860537;29;20516;-93
2023/03/01 07:26:59;;;;;;;14.52;11.90;;;-0.90;99.90;;;;;;4864446;29;20045;-91
2023/03/01 07:29:24;;;;;;;13.73;11.10;;;-0.80;99.90;;;;;;4864644;29;20082;-93
2023/03/01 07:31:50;;;;;;;12.85;10.23;;;-0.80;99.90;;;;;;4864834;29;20067;-93
2023/03/01 07:34:15;;;;;;;14.52;10.88;;;-0.80;99.90;;;;;;4865650;29;20204;-91
2023/03/01 07:36:42;;;;;;;15.02;10.63;;;-0.80;99.90;;;;;;4854478;29;20139;-93
2023/03/01 07:39:09;;;;;;;13.80;10.82;;;-0.80;99.90;;;;;;4846603;29;20094;-92
2023/03/01 07:41:35;;;;;;;15.35;11.70;;;-0.80;99.90;;;;;;4846162;29;20057;-92
2023/03/01 07:44:00;;;;;;;15.75;12.00;;;-0.80;99.90;;;;;;4859319;29;20050;-91
2023/03/01 07:46:26;;;;;;;15.90;12.18;;;-0.80;99.90;;;;;;4865777;29;20406;-89
2023/03/01 07:48:51;;;;;;;15.07;12.10;;;-0.80;99.90;;;;;;4864627;29;20132;-89
2023/03/01 07:51:17;;;;;;;15.98;12.13;;;-0.70;99.90;;;;;;4855242;29;20093;-90
2023/03/01 07:53:47;;;;;;;16.30;12.65;;;-0.70;99.90;;;;;;4861559;29;20064;-90
2023/03/01 07:56:15;;;;;;;16.08;12.30;;;-0.70;99.90;;;;;;4859546;29;20053;-91
2023/03/01 07:58:42;;;;;;;16.20;11.93;;;-0.60;99.90;;;;;;4846942;29;20080;-91
2023/03/01 08:01:14;;;;;;;19.55;13.55;;;-0.60;99.90;;;;;;4852128;29;20050;-92
2023/03/01 08:03:40;;;;;;;17.23;13.60;;;-0.60;99.90;;;;;;4846506;29;20487;-92
2023/03/01 08:06:08;;;;;;;19.88;13.77;;;-0.50;99.90;;;;;;4856286;29;20105;-91
2023/03/01 08:08:37;;;;;;;17.92;12.85;;;-0.40;99.90;;;;;;4861237;29;20034;-92
2023/03/01 08:11:05;;;;;;;16.85;12.75;;;-0.40;99.90;;;;;;4862137;29;20056;-90
2023/03/01 08:13:31;;;;;;;18.30;13.38;;;-0.40;99.90;;;;;;4854855;29;20516;-90
2023/03/01 08:16:14;;;;;;;17.65;13.65;;;-0.30;99.90;;;;;;4847187;29;20145;-91
2023/03/01 08:18:39;;;;;;;17.42;13.15;;;-0.20;99.90;;;;;;4861402;29;20402;-93
2023/03/01 08:21:11;;;;;;;17.77;13.20;;;-0.20;99.90;;;;;;4860832;29;20129;-90
2023/03/01 08:23:36;;;;;;;18.73;13.95;;;-0.10;99.90;;;;;;4861259;29;20057;-90
2023/03/01 08:26:08;;;;;;;20.40;14.20;;;-0.10;99.90;;;;;;4858270;29;20050;-90
2023/03/01 08:28:34;;;;;;;19.73;14.32;;;0.00;99.90;;;;;;4860111;29;20049;-89
2023/03/01 08:31:00;;;;;;;19.75;14.95;;;0.10;99.90;;;;;;4852059;29;20056;-88
2023/03/01 08:33:29;;;;;;;19.73;15.27;;;0.20;99.90;;;;;;4861147;29;20045;-91
2023/03/01 08:36:07;;;;;;;20.73;14.85;;;0.20;99.90;;;;;;4856561;29;20058;-90
2023/03/01 08:38:34;;;;;;;19.60;14.32;;;0.30;99.90;;;;;;4858554;29;20049;-90
2023/03/01 08:41:01;;;;;;;18.42;14.18;;;0.40;99.90;;;;;;4857591;29;20049;-90
2023/03/01 08:43:28;;;;;;;19.15;14.27;;;0.50;99.90;;;;;;4854163;29;20042;-90
2023/03/01 08:45:53;;;;;;;21.38;14.32;;;0.50;99.90;;;;;;4861333;29;20076;-88
2023/03/01 08:48:19;;;;;;;21.35;14.90;;;0.50;99.90;;;;;;4845995;29;20046;-86
2023/03/01 08:50:44;;;;;;;21.80;15.73;;;0.60;99.90;;;;;;4858839;29;20056;-88
2023/03/01 08:53:10;;;;;;;20.98;15.40;;;0.70;99.90;;;;;;4856676;29;20041;-88
2023/03/01 08:55:35;;;;;;;19.50;15.23;;;0.80;99.90;;;;;;4844577;29;20120;-88
2023/03/01 08:58:01;;;;;;;21.73;15.90;;;0.80;99.90;;;;;;4860446;29;20568;-88
2023/03/01 09:00:27;;;;;;;23.75;16.85;;;0.90;99.90;;;;;;4859970;29;20037;-92
2023/03/01 09:02:53;;;;;;;23.35;16.60;;;1.00;99.90;;;;;;4861899;29;20053;-89
2023/03/01 09:05:18;;;;;;;23.40;16.77;;;1.10;99.90;;;;;;4860972;29;20052;-90
2023/03/01 09:07:44;;;;;;;32.03;21.92;;;1.20;99.90;;;;;;4852520;29;20045;-90
2023/03/01 09:10:10;;;;;;;23.02;16.83;;;1.30;99.90;;;;;;4861634;29;20045;-92
2023/03/01 09:12:36;;;;;;;22.70;16.15;;;1.40;99.90;;;;;;4848514;29;20042;-90
2023/03/01 09:15:01;;;;;;;22.58;16.73;;;1.50;99.90;;;;;;4848565;29;20467;-92
2023/03/01 09:17:27;;;;;;;22.00;16.58;;;1.60;99.90;;;;;;4854665;29;20121;-90
2023/03/01 09:19:52;;;;;;;22.85;16.75;;;1.70;99.90;;;;;;4858686;29;20553;-91
2023/03/01 09:22:18;;;;;;;25.25;17.92;;;1.80;99.90;;;;;;4855865;29;20049;-89
2023/03/01 09:24:44;;;;;;;36.13;24.25;;;1.80;99.90;;;;;;4856177;29;20462;-90
2023/03/01 09:27:10;;;;;;;33.60;22.55;;;1.90;99.90;;;;;;4856485;29;20041;-89
2023/03/01 09:29:36;;;;;;;25.27;18.40;;;2.00;99.90;;;;;;4860660;29;20045;-91
2023/03/01 09:32:02;;;;;;;25.02;18.30;;;2.10;99.90;;;;;;4837849;29;20054;-91
2023/03/01 09:34:28;;;;;;;27.90;18.40;;;2.10;99.90;;;;;;4853203;29;20041;-91
2023/03/01 09:36:53;;;;;;;27.13;18.02;;;2.30;99.90;;;;;;4858635;29;20050;-90
2023/03/01 09:39:20;;;;;;;34.13;22.83;;;2.30;99.90;;;;;;4856764;29;20093;-90
2023/03/01 09:42:02;;;;;;;28.92;21.05;;;2.40;99.90;;;;;;4857267;29;20144;-89
2023/03/01 09:44:47;;;;;;;26.40;18.55;;;2.50;99.90;;;;;;4874538;29;20451;-91
2023/03/01 09:47:21;;;;;;;29.98;19.73;;;2.60;99.90;;;;;;4843620;29;20081;-93
2023/03/01 09:50:12;;;;;;;37.13;23.50;;;2.70;99.90;;;;;;4857668;29;20454;-91
2023/03/01 09:53:01;;;;;;;35.88;21.75;;;2.80;99.90;;;;;;4860866;29;20113;-93
2023/03/01 09:55:32;;;;;;;28.52;20.33;;;2.90;99.90;;;;;;4851782;29;20060;-94
2023/03/01 09:58:26;;;;;;;35.08;22.40;;;3.00;99.90;;;;;;4862566;29;20050;-95
2023/03/01 10:00:51;;;;;;;31.98;21.55;;;3.10;99.90;;;;;;4861533;29;20085;-92
2023/03/01 10:03:25;;;;;;;26.05;19.60;;;3.20;99.90;;;;;;4862330;29;20442;-92
2023/03/01 10:06:14;;;;;;;27.63;20.02;;;3.40;99.90;;;;;;4862003;29;20067;-92
2023/03/01 10:09:02;;;;;;;32.15;21.90;;;3.50;99.90;;;;;;4857442;29;20041;-92
2023/03/01 10:11:32;;;;;;;31.52;21.85;;;3.60;99.90;;;;;;4844031;29;20061;-94
2023/03/01 10:14:15;;;;;;;32.38;21.40;;;3.70;99.90;;;;;;4858488;29;20530;-93
2023/03/01 10:16:57;;;;;;;31.23;22.23;;;3.80;99.90;;;;;;4861115;29;20053;-95
2023/03/01 10:19:30;;;;;;;30.75;20.65;;;3.80;99.90;;;;;;4862603;29;20061;-94
2023/03/01 10:22:03;;;;;;;30.52;21.48;;;3.90;99.90;;;;;;4833385;29;20050;-93
2023/03/01 10:24:33;;;;;;;31.98;20.52;;;4.00;99.90;;;;;;4846537;29;20490;-94
2023/03/01 10:27:08;;;;;;;29.90;20.65;;;4.10;99.90;;;;;;4864334;29;20046;-96
2023/03/01 10:30:02;;;;;;;28.70;19.30;;;4.20;99.90;;;;;;4894344;29;20042;-96
2023/03/01 10:32:29;;;;;;;29.50;19.50;;;4.30;99.90;;;;;;4881413;29;20133;-96
2023/03/01 10:34:57;;;;;;;31.15;20.83;;;4.40;99.90;;;;;;4857989;29;20049;-95
2023/03/01 10:37:25;;;;;;;27.80;19.77;;;4.40;99.90;;;;;;4858328;29;20578;-93
2023/03/01 10:39:55;;;;;;;31.52;20.15;;;4.50;99.90;;;;;;4876452;29;20038;-95
2023/03/01 10:42:31;;;;;;;27.33;19.10;;;4.60;99.90;;;;;;4852855;29;20049;-93
2023/03/01 10:44:57;;;;;;;27.92;19.45;;;4.70;99.90;;;;;;4871167;29;20081;-91
2023/03/01 10:47:26;;;;;;;28.95;20.48;;;4.80;99.90;;;;;;4860875;29;20049;-92
2023/03/01 10:50:03;;;;;;;28.45;19.10;;;4.80;99.90;;;;;;4840249;29;20055;-92
2023/03/01 10:52:30;;;;;;;28.58;20.27;;;4.90;99.90;;;;;;4858264;29;20057;-93
2023/03/01 10:54:59;;;;;;;24.77;18.95;;;5.00;99.90;;;;;;4844505;29;20053;-93
2023/03/01 10:57:37;;;;;;;26.17;18.45;;;5.00;99.90;;;;;;4860888;29;20084;-92
2023/03/01 11:00:19;;;;;;;25.98;18.75;;;5.20;99.90;;;;;;4861894;29;20050;-94
2023/03/01 11:02:49;;;;;;;24.40;17.35;;;5.20;99.90;;;;;;4876304;29;20053;-94
2023/03/01 11:05:19;;;;;;;25.00;18.10;;;5.30;99.90;;;;;;4851606;29;20129;-95
2023/03/01 11:07:54;;;;;;;26.08;19.05;;;5.40;99.90;;;;;;4846214;29;20446;-93
2023/03/01 11:10:23;;;;;;;25.20;18.42;;;5.50;99.90;;;;;;4848966;29;20411;-92
2023/03/01 11:12:51;;;;;;;23.30;17.05;;;5.50;99.90;;;;;;4852142;29;20514;-92
2023/03/01 11:15:36;;;;;;;24.00;18.05;;;5.60;99.90;;;;;;4862210;29;20057;-95
2023/03/01 11:18:02;;;;;;;25.98;18.27;;;5.60;99.90;;;;;;4854320;29;20057;-94
2023/03/01 11:20:34;;;;;;;22.75;17.50;;;5.70;99.90;;;;;;4854298;29;20049;-96
2023/03/01 11:23:12;;;;;;;23.55;17.83;;;5.80;99.90;;;;;;4853011;29;20092;-95
2023/03/01 11:25:45;;;;;;;24.30;17.95;;;5.80;99.90;;;;;;4849896;29;20078;-92
2023/03/01 11:28:16;;;;;;;;;;;5.90;99.90;;;;;;4856587;29;20081;-93
2023/03/01 11:31:02;;;;;;;23.50;17.73;;;6.00;99.90;;;;;;4860098;29;19976;-93
2023/03/01 11:33:36;;;;;;;25.02;17.55;;;6.00;99.90;;;;;;4851854;29;20081;-94
2023/03/01 11:36:16;;;;;;;24.80;17.85;;;6.10;99.90;;;;;;4868450;29;20053;-92
2023/03/01 11:38:43;;;;;;;25.42;16.65;;;6.20;99.90;;;;;;4856814;29;20044;-91
2023/03/01 11:41:16;;;;;;;23.42;17.20;;;6.20;99.90;;;;;;4850238;29;20060;-93
2023/03/01 11:43:53;;;;;;;24.38;17.67;;;6.30;99.90;;;;;;4857248;29;20038;-94
2023/03/01 11:46:30;;;;;;;22.92;17.23;;;6.40;99.90;;;;;;4858056;29;20090;-95
2023/03/01 11:49:44;;;;;;;22.65;16.55;;;6.50;99.90;;;;;;4861646;29;20053;-93
2023/03/01 11:52:16;;;;;;;22.83;17.08;;;6.50;99.90;;;;;;4843650;29;20053;-93
2023/03/01 11:54:57;;;;;;;21.17;16.40;;;6.60;99.90;;;;;;4859649;29;20089;-95
2023/03/01 11:57:36;;;;;;;21.45;16.42;;;6.70;99.90;;;;;;4849928;29;20081;-94
2023/03/01 12:00:08;;;;;;;20.35;15.77;;;6.70;99.90;;;;;;4843506;29;20050;-94
2023/03/01 12:03:11;;;;;;;20.73;14.68;;;6.80;99.90;;;;;;4854078;29;20049;-95
2023/03/01 12:05:43;;;;;;;21.13;15.43;;;6.90;99.90;;;;;;4865524;29;20049;-95
2023/03/01 12:08:19;;;;;;;20.52;15.57;;;6.90;99.90;;;;;;4857594;29;20060;-90
2023/03/01 12:10:51;;;;;;;20.95;15.10;;;6.90;99.90;;;;;;4861818;29;20076;-92
2023/03/01 12:13:25;;;;;;;19.00;14.85;;;7.00;99.90;;;;;;4859301;29;20042;-92
2023/03/01 12:16:14;;;;;;;21.92;15.95;;;7.10;99.90;;;;;;4856466;29;20090;-91
2023/03/01 12:19:00;;;;;;;18.38;14.35;;;7.10;99.90;;;;;;4845566;29;20069;-93
2023/03/01 12:21:49;;;;;;;19.30;14.68;;;7.20;99.90;;;;;;4846415;29;20050;-94
2023/03/01 12:24:31;;;;;;;19.02;13.80;;;7.20;99.90;;;;;;4844577;29;20087;-93
2023/03/01 12:27:16;;;;;;;19.48;14.65;;;7.30;99.90;;;;;;4844839;29;20479;-92
2023/03/01 12:30:05;;;;;;;17.88;13.65;;;7.30;99.90;;;;;;4848220;29;20428;-93
2023/03/01 12:32:44;;;;;;;20.20;14.73;;;7.40;99.90;;;;;;4847989;29;20503;-92
2023/03/01 12:35:42;;;;;;;17.85;13.07;;;7.40;99.90;;;;;;4863313;29;20057;-92
2023/03/01 12:38:25;;;;;;;21.50;15.63;;;7.50;99.90;;;;;;4860860;29;20388;-94
2023/03/01 12:41:12;;;;;;;17.23;14.25;;;7.50;99.90;;;;;;4848132;29;20130;-95
2023/03/01 12:43:52;;;;;;;19.50;13.90;;;7.60;99.90;;;;;;4859849;29;20133;-96
2023/03/01 12:46:45;;;;;;;19.02;14.07;;;7.60;99.90;;;;;;4878950;29;20054;-92
2023/03/01 12:49:19;;;;;;;20.63;14.80;;;7.70;99.90;;;;;;4864393;29;20106;-95
2023/03/01 12:51:56;;;;;;;19.17;14.48;;;7.70;99.90;;;;;;4861008;29;20049;-92